createdAt,value
2022-07-25T00:00:41.830Z,6.95
2022-07-25T00:03:43.645Z,7.65
2022-07-25T00:06:45.853Z,7.38
2022-07-25T00:09:47.619Z,7.97
2022-07-25T00:12:49.587Z,7.88
2022-07-25T00:15:51.542Z,7.70
2022-07-25T00:18:53.571Z,7.30
2022-07-25T00:21:55.670Z,7.30
2022-07-25T00:24:57.333Z,7.35
2022-07-25T00:27:59.150Z,7.40
2022-07-25T00:31:01.058Z,8.40
2022-07-25T00:34:04.685Z,7.50
2022-07-25T00:37:07.056Z,6.95
2022-07-25T00:40:09.536Z,7.18
2022-07-25T00:43:11.250Z,8.27
2022-07-25T00:46:18.853Z,7.22
2022-07-25T00:49:21.595Z,7.30
2022-07-25T00:52:24.698Z,7.40
2022-07-25T00:55:27.387Z,7.15
2022-07-25T00:58:29.546Z,8.48
2022-07-25T01:01:31.674Z,7.20
2022-07-25T01:04:34.125Z,8.10
2022-07-25T01:07:37.074Z,9.10
2022-07-25T01:10:39.656Z,7.55
2022-07-25T01:13:41.831Z,7.60
2022-07-25T01:16:43.597Z,8.52
2022-07-25T01:19:46.510Z,7.85
2022-07-25T01:22:48.957Z,7.90
2022-07-25T01:25:50.797Z,7.53
2022-07-25T01:28:54.653Z,7.78
2022-07-25T01:31:56.480Z,8.00
2022-07-25T01:34:58.232Z,7.45
2022-07-25T01:37:59.888Z,7.22
2022-07-25T01:41:01.746Z,7.45
2022-07-25T01:44:04.488Z,7.18
2022-07-25T01:47:06.554Z,7.75
2022-07-25T01:50:09.679Z,7.40
2022-07-25T01:53:11.552Z,7.65
2022-07-25T01:56:13.521Z,7.53
2022-07-25T01:59:16.963Z,7.65
2022-07-25T02:02:18.710Z,8.23
2022-07-25T02:05:20.365Z,7.63
2022-07-25T02:08:22.433Z,7.15
2022-07-25T02:11:24.336Z,7.57
2022-07-25T02:14:26.534Z,9.38
2022-07-25T02:17:28.230Z,8.13
2022-07-25T02:20:30.371Z,7.72
2022-07-25T02:23:32.198Z,7.85
2022-07-25T02:26:34.241Z,8.48
2022-07-25T02:29:36.165Z,7.75
2022-07-25T02:32:38.028Z,7.72
2022-07-25T02:35:39.931Z,7.07
2022-07-25T02:38:41.959Z,9.95
2022-07-25T02:41:44.374Z,8.52
2022-07-25T02:44:46.149Z,8.07
2022-07-25T02:47:47.898Z,7.95
2022-07-25T02:50:49.709Z,8.73
2022-07-25T02:53:57.561Z,8.48
2022-07-25T02:57:10.940Z,9.93
2022-07-25T03:00:13.536Z,8.05
2022-07-25T03:03:15.364Z,8.57
2022-07-25T03:06:17.281Z,7.78
2022-07-25T03:09:19.540Z,8.07
2022-07-25T03:12:21.218Z,8.13
2022-07-25T03:15:23.205Z,8.25
2022-07-25T03:18:24.858Z,7.28
2022-07-25T03:21:26.490Z,7.95
2022-07-25T03:24:28.239Z,7.65
2022-07-25T03:27:29.897Z,8.82
2022-07-25T03:30:32.032Z,8.50
2022-07-25T03:33:33.680Z,8.27
2022-07-25T03:36:35.492Z,8.45
2022-07-25T03:39:37.412Z,8.00
2022-07-25T03:42:39.171Z,7.95
2022-07-25T03:45:40.993Z,7.45
2022-07-25T03:48:42.986Z,10.80
2022-07-25T03:51:45.149Z,8.65
2022-07-25T03:54:46.916Z,8.13
2022-07-25T03:57:48.589Z,7.78
2022-07-25T04:00:50.296Z,7.90
2022-07-25T04:03:52.091Z,8.32
2022-07-25T04:06:53.802Z,8.93
2022-07-25T04:09:55.514Z,8.32
2022-07-25T04:12:57.609Z,8.15
2022-07-25T04:15:59.547Z,7.65
2022-07-25T04:19:01.950Z,8.80
2022-07-25T04:22:03.939Z,9.05
2022-07-25T04:25:06.593Z,8.30
2022-07-25T04:28:08.518Z,8.10
2022-07-25T04:31:10.289Z,7.97
2022-07-25T04:34:12.227Z,8.05
2022-07-25T04:37:14.083Z,8.20
2022-07-25T04:40:15.846Z,8.27
2022-07-25T04:43:17.606Z,9.15
2022-07-25T04:46:20.823Z,8.32
2022-07-25T04:49:22.573Z,7.13
2022-07-25T04:52:24.369Z,8.07
2022-07-25T04:55:26.166Z,7.47
2022-07-25T04:58:27.981Z,8.77
2022-07-25T05:01:29.752Z,7.78
2022-07-25T05:04:31.651Z,7.60
2022-07-25T05:07:33.418Z,8.65
2022-07-25T05:10:35.202Z,7.88
2022-07-25T05:13:36.905Z,7.90
2022-07-25T05:16:38.750Z,8.15
2022-07-25T05:19:41.121Z,9.00
2022-07-25T05:22:43.204Z,9.43
2022-07-25T05:25:44.988Z,8.32
2022-07-25T05:28:46.784Z,9.23
2022-07-25T05:31:48.639Z,8.25
2022-07-25T05:34:50.513Z,7.90
2022-07-25T05:37:52.183Z,9.00
2022-07-25T05:40:53.976Z,10.60
2022-07-25T05:43:55.658Z,20.92
2022-07-25T05:46:57.516Z,19.98
2022-07-25T05:49:59.680Z,13.07
2022-07-25T05:53:01.927Z,10.50
2022-07-25T05:56:03.842Z,9.45
2022-07-25T05:59:05.832Z,8.68
2022-07-25T06:02:08.672Z,8.82
2022-07-25T06:05:10.549Z,8.10
2022-07-25T06:08:13.611Z,8.30
2022-07-25T06:11:15.279Z,9.30
2022-07-25T06:14:17.390Z,9.23
2022-07-25T06:17:19.295Z,9.05
2022-07-25T06:20:21.141Z,9.55
2022-07-25T06:23:23.063Z,9.20
2022-07-25T06:26:29.325Z,10.23
2022-07-25T06:29:31.086Z,9.20
2022-07-25T06:32:32.899Z,8.10
2022-07-25T06:35:34.586Z,8.57
2022-07-25T06:38:36.557Z,8.40
2022-07-25T06:41:38.290Z,10.25
2022-07-25T06:44:40.062Z,10.20
2022-07-25T06:47:43.182Z,9.73
2022-07-25T06:50:45.632Z,9.15
2022-07-25T06:53:47.452Z,8.30
2022-07-25T06:56:49.527Z,8.75
2022-07-25T06:59:51.677Z,13.25
2022-07-25T07:02:56.912Z,8.73
2022-07-25T07:06:01.431Z,8.82
2022-07-25T07:09:03.769Z,9.75
2022-07-25T07:12:05.840Z,10.07
2022-07-25T07:15:08.121Z,8.32
2022-07-25T07:18:10.086Z,8.52
2022-07-25T07:21:16.196Z,10.65
2022-07-25T07:24:24.659Z,9.77
2022-07-25T07:27:26.607Z,8.90
2022-07-25T07:30:52.220Z,9.00
2022-07-25T07:33:50.607Z,8.50
2022-07-25T07:36:52.777Z,8.77
2022-07-25T07:39:54.680Z,9.65
2022-07-25T07:42:58.608Z,8.48
2022-07-25T07:46:01.528Z,8.65
2022-07-25T07:49:04.301Z,7.70
2022-07-25T07:52:06.481Z,8.23
2022-07-25T07:55:27.765Z,11.02
2022-07-25T07:58:29.852Z,9.38
2022-07-25T08:01:31.950Z,9.48
2022-07-25T08:04:33.989Z,9.07
2022-07-25T08:07:35.825Z,9.32
2022-07-25T08:10:40.506Z,9.57
2022-07-25T08:13:42.260Z,9.52
2022-07-25T08:16:44.106Z,9.15
2022-07-25T08:19:45.840Z,8.50
2022-07-25T08:22:53.064Z,9.27
2022-07-25T08:25:58.184Z,8.45
2022-07-25T08:29:17.554Z,8.65
2022-07-25T08:32:20.550Z,10.77
2022-07-25T08:35:24.504Z,8.18
2022-07-25T08:38:27.334Z,8.20
2022-07-25T08:41:29.604Z,10.40
2022-07-25T08:44:38.054Z,8.43
2022-07-25T08:47:40.823Z,9.30
2022-07-25T08:50:43.339Z,8.93
2022-07-25T08:53:48.563Z,8.50
2022-07-25T08:56:51.144Z,8.65
2022-07-25T08:59:52.959Z,9.00
2022-07-25T09:02:55.693Z,9.40
2022-07-25T09:05:58.747Z,8.35
2022-07-25T09:09:04.676Z,9.15
2022-07-25T09:12:07.677Z,7.78
2022-07-25T09:15:09.731Z,8.02
2022-07-25T09:18:15.927Z,7.65
2022-07-25T09:21:18.769Z,8.40
2022-07-25T09:24:22.531Z,7.70
2022-07-25T09:27:24.171Z,8.60
2022-07-25T09:30:25.865Z,9.05
2022-07-25T09:33:29.170Z,9.27
2022-07-25T09:36:30.888Z,8.65
2022-07-25T09:39:53.691Z,8.15
2022-07-25T09:42:55.567Z,8.48
2022-07-25T09:45:59.170Z,7.93
2022-07-25T09:49:01.305Z,7.78
2022-07-25T09:52:03.303Z,7.80
2022-07-25T09:55:06.439Z,7.50
2022-07-25T09:58:08.115Z,8.30
2022-07-25T10:01:12.886Z,8.20
2022-07-25T10:04:18.846Z,7.32
2022-07-25T10:07:24.262Z,7.72
2022-07-25T10:10:37.871Z,7.55
2022-07-25T10:13:39.669Z,7.35
2022-07-25T10:16:46.737Z,7.30
2022-07-25T10:19:53.026Z,7.15
2022-07-25T10:22:57.312Z,8.27
2022-07-25T10:26:15.224Z,8.40
2022-07-25T10:29:17.240Z,7.25
2022-07-25T10:32:19.054Z,7.05
2022-07-25T10:35:20.829Z,6.95
2022-07-25T10:38:28.423Z,8.40
2022-07-25T10:41:30.302Z,7.60
2022-07-25T10:44:54.433Z,7.95
2022-07-25T10:47:56.139Z,7.95
2022-07-25T10:51:00.395Z,8.20
2022-07-25T10:54:16.818Z,7.45
2022-07-25T10:57:18.452Z,8.63
2022-07-25T11:00:20.599Z,8.38
2022-07-25T11:03:22.572Z,8.40
2022-07-25T11:06:40.461Z,7.72
2022-07-25T11:09:43.724Z,7.40
2022-07-25T11:12:45.589Z,7.68
2022-07-25T11:15:47.760Z,8.48
2022-07-25T11:18:49.641Z,7.95
2022-07-25T11:21:54.582Z,8.00
2022-07-25T11:24:57.886Z,8.30
2022-07-25T11:28:00.995Z,8.02
2022-07-25T11:31:04.578Z,7.32
2022-07-25T11:34:06.327Z,7.90
2022-07-25T11:37:10.303Z,7.45
2022-07-25T11:40:16.342Z,7.72
2022-07-25T11:43:22.872Z,9.60
2022-07-25T11:46:24.599Z,9.00
2022-07-25T11:49:26.448Z,8.48
2022-07-25T11:52:31.263Z,7.35
2022-07-25T11:55:37.446Z,8.38
2022-07-25T11:58:39.374Z,7.50
2022-07-25T12:01:43.953Z,9.32
2022-07-25T12:07:55.578Z,7.90
2022-07-25T12:10:57.554Z,6.85
2022-07-25T12:14:04.781Z,7.50
2022-07-25T12:17:06.473Z,8.18
2022-07-25T12:20:15.144Z,7.43
2022-07-25T12:23:16.947Z,7.70
2022-07-25T12:26:19.136Z,7.38
2022-07-25T12:29:20.818Z,8.73
2022-07-25T12:32:22.481Z,8.02
2022-07-25T12:35:25.150Z,7.90
2022-07-25T12:38:27.141Z,7.35
2022-07-25T12:41:28.866Z,7.63
2022-07-25T12:44:30.648Z,6.78
2022-07-25T12:47:32.471Z,7.72
2022-07-25T12:50:34.206Z,7.22
2022-07-25T12:53:40.252Z,8.38
2022-07-25T12:56:43.871Z,7.82
2022-07-25T12:59:45.616Z,7.40
2022-07-25T13:02:48.883Z,9.45
2022-07-25T13:05:50.745Z,7.93
2022-07-25T13:08:52.442Z,7.75
2022-07-25T13:11:54.977Z,6.82
2022-07-25T13:14:56.839Z,8.02
2022-07-25T13:17:58.482Z,8.52
2022-07-25T13:21:03.477Z,7.82
2022-07-25T13:24:07.097Z,7.38
2022-07-25T13:27:09.447Z,7.32
2022-07-25T13:30:11.714Z,7.55
2022-07-25T13:33:13.396Z,7.28
2022-07-25T13:36:16.426Z,6.85
2022-07-25T13:39:18.158Z,7.47
2022-07-25T13:42:19.842Z,8.93
2022-07-25T13:45:21.643Z,8.98
2022-07-25T13:48:31.137Z,8.27
2022-07-25T13:51:33.452Z,7.50
2022-07-25T13:54:35.333Z,7.18
2022-07-25T13:57:36.984Z,7.40
2022-07-25T14:00:39.068Z,6.30
2022-07-25T14:03:41.212Z,7.30
2022-07-25T14:06:43.331Z,8.55
2022-07-25T14:09:45.050Z,6.80
2022-07-25T14:12:46.676Z,6.97
2022-07-25T14:15:48.375Z,7.82
2022-07-25T14:18:50.842Z,7.75
2022-07-25T14:21:52.661Z,7.80
2022-07-25T14:24:54.291Z,6.70
2022-07-25T14:27:56.037Z,7.70
2022-07-25T14:30:57.932Z,8.02
2022-07-25T14:33:59.584Z,9.68
2022-07-25T14:37:02.540Z,6.93
2022-07-25T14:40:05.810Z,7.40
2022-07-25T14:43:08.596Z,6.70
2022-07-25T14:46:10.410Z,6.70
2022-07-25T14:49:16.908Z,7.55
2022-07-25T14:52:18.774Z,7.28
2022-07-25T14:55:22.282Z,7.70
2022-07-25T14:58:24.118Z,6.88
2022-07-25T15:01:25.925Z,8.30
2022-07-25T15:04:28.158Z,8.32
2022-07-25T15:07:30.026Z,8.23
2022-07-25T15:10:31.835Z,6.45
2022-07-25T15:13:33.641Z,6.78
2022-07-25T15:16:35.575Z,9.10
2022-07-25T15:19:37.311Z,7.15
2022-07-25T15:22:39.003Z,7.15
2022-07-25T15:29:03.095Z,7.30
2022-07-25T15:32:05.765Z,8.88
2022-07-25T15:35:09.577Z,6.68
2022-07-25T15:38:11.755Z,8.97
2022-07-25T15:41:13.543Z,8.50
2022-07-25T15:44:15.174Z,7.07
2022-07-25T15:47:16.873Z,7.43
2022-07-25T15:50:19.379Z,7.50
2022-07-25T15:53:21.115Z,8.65
2022-07-25T15:56:22.938Z,7.78
2022-07-25T15:59:24.639Z,8.52
2022-07-25T16:02:26.287Z,8.50
2022-07-25T16:05:28.352Z,7.13
2022-07-25T16:08:30.200Z,7.00
2022-07-25T16:11:33.884Z,5.95
2022-07-25T16:14:35.552Z,7.43
2022-07-25T16:17:38.107Z,9.48
2022-07-25T16:20:39.772Z,7.35
2022-07-25T16:23:45.531Z,7.65
2022-07-25T16:26:49.029Z,6.13
2022-07-25T16:29:51.011Z,6.45
2022-07-25T16:32:52.695Z,5.85
2022-07-25T16:35:54.581Z,6.55
2022-07-25T16:38:59.756Z,7.75
2022-07-25T16:42:01.544Z,5.82
2022-07-25T16:45:05.021Z,6.53
2022-07-25T16:48:06.835Z,7.32
2022-07-25T16:51:08.471Z,6.50
2022-07-25T16:54:10.546Z,7.22
2022-07-25T16:57:12.265Z,6.63
2022-07-25T17:00:14.348Z,7.20
2022-07-25T17:03:16.002Z,6.72
2022-07-25T17:06:18.006Z,7.05
2022-07-25T17:09:19.826Z,7.18
2022-07-25T17:12:21.584Z,6.47
2022-07-25T17:15:23.428Z,7.25
2022-07-25T17:18:25.314Z,6.47
2022-07-25T17:21:26.964Z,6.07
2022-07-25T17:24:28.607Z,5.90
2022-07-25T17:27:30.511Z,6.13
2022-07-25T17:30:32.211Z,6.05
2022-07-25T17:33:33.860Z,5.70
2022-07-25T17:36:35.621Z,7.22
2022-07-25T17:39:37.390Z,7.65
2022-07-25T17:42:44.857Z,5.53
2022-07-25T17:45:47.007Z,8.40
2022-07-25T17:48:48.810Z,7.50
2022-07-25T17:51:50.546Z,7.65
2022-07-25T17:54:52.205Z,7.45
2022-07-25T17:57:54.689Z,5.55
2022-07-25T18:01:01.014Z,6.68
2022-07-25T18:04:03.946Z,6.30
2022-07-25T18:07:05.998Z,5.80
2022-07-25T18:10:07.916Z,6.43
2022-07-25T18:13:09.662Z,5.30
2022-07-25T18:16:11.470Z,5.53
2022-07-25T18:19:13.628Z,5.28
2022-07-25T18:22:15.346Z,5.63
2022-07-25T18:25:17.141Z,5.22
2022-07-25T18:28:19.151Z,4.75
2022-07-25T18:31:20.869Z,6.10
2022-07-25T18:34:22.577Z,6.15
2022-07-25T18:37:24.348Z,5.53
2022-07-25T18:40:26.208Z,5.78
2022-07-25T18:43:27.889Z,5.75
2022-07-25T18:46:32.852Z,5.25
2022-07-25T18:49:34.590Z,5.07
2022-07-25T18:52:37.471Z,4.63
2022-07-25T18:55:39.174Z,4.55
2022-07-25T18:58:41.377Z,4.65
2022-07-25T19:01:43.129Z,5.55
2022-07-25T19:04:44.904Z,4.38
2022-07-25T19:07:46.572Z,6.15
2022-07-25T19:10:48.230Z,5.03
2022-07-25T19:13:51.277Z,6.90
2022-07-25T19:17:02.459Z,6.35
2022-07-25T19:20:05.287Z,5.47
2022-07-25T19:23:07.185Z,4.85
2022-07-25T19:26:08.881Z,4.60
2022-07-25T19:29:11.262Z,4.03
2022-07-25T19:32:12.882Z,4.28
2022-07-25T19:35:25.637Z,5.38
2022-07-25T19:38:27.806Z,5.43
2022-07-25T19:41:30.563Z,4.85
2022-07-25T19:44:32.307Z,4.80
2022-07-25T19:47:34.076Z,4.80
2022-07-25T19:50:35.766Z,4.32
2022-07-25T19:53:37.722Z,5.25
2022-07-25T19:56:39.360Z,4.57
2022-07-25T19:59:41.361Z,5.63
2022-07-25T20:02:43.308Z,5.45
2022-07-25T20:05:45.329Z,5.07
2022-07-25T20:08:47.876Z,5.90
2022-07-25T20:11:49.573Z,5.28
2022-07-25T20:14:51.358Z,6.88
2022-07-25T20:17:53.077Z,5.00
2022-07-25T20:20:54.734Z,4.35
2022-07-25T20:23:56.377Z,5.43
2022-07-25T20:26:58.594Z,5.72
2022-07-25T20:30:03.322Z,4.35
2022-07-25T20:33:09.331Z,4.78
2022-07-25T20:36:11.439Z,5.15
2022-07-25T20:39:13.798Z,4.13
2022-07-25T20:42:16.217Z,4.40
2022-07-25T20:45:17.948Z,5.18
2022-07-25T20:48:19.779Z,5.13
2022-07-25T20:51:21.566Z,4.95
2022-07-25T20:54:23.545Z,6.25
2022-07-25T20:57:25.301Z,5.55
2022-07-25T21:00:28.847Z,4.78
2022-07-25T21:03:31.213Z,4.82
2022-07-25T21:06:32.972Z,5.03
2022-07-25T21:09:35.082Z,5.60
2022-07-25T21:12:37.900Z,4.30
2022-07-25T21:15:39.534Z,4.22
2022-07-25T21:18:41.641Z,6.57
2022-07-25T21:21:43.420Z,5.20
2022-07-25T21:24:45.115Z,4.88
2022-07-25T21:27:46.764Z,4.25
2022-07-25T21:30:48.457Z,4.70
2022-07-25T21:33:50.277Z,5.25
2022-07-25T21:36:51.935Z,4.53
2022-07-25T21:39:54.110Z,5.50
2022-07-25T21:42:56.607Z,4.85
2022-07-25T21:45:58.461Z,4.80
2022-07-25T21:49:29.959Z,5.15
2022-07-25T21:52:40.690Z,4.53
2022-07-25T21:55:42.421Z,4.40
2022-07-25T21:58:44.729Z,4.07
2022-07-25T22:01:46.580Z,4.70
2022-07-25T22:04:48.365Z,4.15
2022-07-25T22:07:50.753Z,4.60
2022-07-25T22:10:52.761Z,6.47
2022-07-25T22:13:54.454Z,6.22
2022-07-25T22:16:56.401Z,5.40
2022-07-25T22:19:58.101Z,4.47
2022-07-25T22:22:59.874Z,3.80
2022-07-25T22:26:02.246Z,4.50
2022-07-25T22:29:04.351Z,5.32
2022-07-25T22:32:06.218Z,4.85
2022-07-25T22:35:08.540Z,4.78
2022-07-25T22:38:10.210Z,3.50
2022-07-25T22:41:11.927Z,4.18
2022-07-25T22:44:13.734Z,5.55
2022-07-25T22:47:15.564Z,4.35
2022-07-25T22:50:17.298Z,4.00
2022-07-25T22:53:18.951Z,4.72
2022-07-25T22:56:21.243Z,3.85
2022-07-25T22:59:23.659Z,4.43
2022-07-25T23:02:25.405Z,3.55
2022-07-25T23:05:27.246Z,4.82
2022-07-25T23:08:29.438Z,3.30
2022-07-25T23:11:31.187Z,3.80
2022-07-25T23:14:32.816Z,4.53
2022-07-25T23:17:34.724Z,4.18
2022-07-25T23:20:36.674Z,4.05
2022-07-25T23:23:38.314Z,3.85
2022-07-25T23:26:40.061Z,3.80
2022-07-25T23:29:42.441Z,3.63
2022-07-25T23:32:44.354Z,3.20
2022-07-25T23:35:47.355Z,4.10
2022-07-25T23:38:49.063Z,4.45
2022-07-25T23:41:50.881Z,5.07
2022-07-25T23:44:52.691Z,3.60
2022-07-25T23:47:54.479Z,3.47
2022-07-25T23:50:57.111Z,3.35
2022-07-25T23:53:59.892Z,3.17
2022-07-25T23:57:03.016Z,3.33
